Terminal Aerodrome Forecast
Issued by NWS

Home | Current Version | Previous Version | Text Only | Print | Product List | Glossary On
Versions: 1 2 3 4 5 6 7 8 9 10 11 12 13 14 15 16 17 18 19 20 21 22
404
FTUS41 KILN 041720
TAFLCK
TAF
KLCK 041720Z 0418/0518 26016G26KT P6SM BKN045 OVC080
     FM041900 26016G26KT 6SM -SHRA VCTS OVC040CB
     FM042100 26013G19KT 4SM -SHRA BR SCT015 OVC025
     FM050200 31010KT P6SM VCSH OVC015
     FM050600 32008KT P6SM VCSH OVC006
     FM051400 35010KT P6SM BKN020=

USA.gov is the U.S. government's official web portal to all federal, state and local government web resources and services.